createdAt,value
2022-09-14T00:04:04.894Z,16.04
2022-09-14T00:09:11.453Z,16.09
2022-09-14T00:14:15.332Z,16.21
2022-09-14T00:19:27.747Z,16.22
2022-09-14T00:24:35.153Z,16.19
2022-09-14T00:29:38.106Z,16.15
2022-09-14T00:34:40.928Z,16.13
2022-09-14T00:39:43.951Z,16.17
2022-09-14T00:44:46.876Z,16.22
2022-09-14T00:49:49.752Z,16.23
2022-09-14T00:54:59.415Z,16.21
2022-09-14T01:00:04.882Z,16.16
2022-09-14T01:05:11.964Z,16.13
2022-09-14T01:10:54.838Z,16.13
2022-09-14T01:16:29.061Z,16.16
2022-09-14T01:21:35.769Z,16.15
2022-09-14T01:26:56.705Z,16.12
2022-09-14T01:32:12.893Z,16.05
2022-09-14T01:37:37.002Z,16.02
2022-09-14T01:42:44.394Z,16.03
2022-09-14T01:48:07.633Z,16.04
2022-09-14T01:53:39.006Z,16.02
2022-09-14T01:59:02.504Z,15.95
2022-09-14T02:04:15.256Z,15.80
2022-09-14T02:09:26.616Z,15.72
2022-09-14T02:14:30.088Z,15.66
2022-09-14T02:19:37.376Z,15.65
2022-09-14T02:24:40.617Z,15.61
2022-09-14T02:29:43.656Z,15.53
2022-09-14T02:34:49.422Z,15.45
2022-09-14T02:40:21.821Z,15.41
2022-09-14T02:46:00.491Z,15.42
2022-09-14T02:51:17.053Z,15.42
2022-09-14T02:56:21.059Z,15.40
2022-09-14T03:01:25.332Z,15.40
2022-09-14T03:06:28.272Z,15.44
2022-09-14T03:11:31.110Z,15.52
2022-09-14T03:16:34.040Z,15.59
2022-09-14T03:21:39.509Z,15.64
2022-09-14T03:26:42.470Z,15.64
2022-09-14T03:31:45.471Z,15.61
2022-09-14T03:36:48.387Z,15.59
2022-09-14T03:41:51.294Z,15.61
2022-09-14T03:46:54.200Z,15.68
2022-09-14T03:51:59.801Z,15.74
2022-09-14T03:57:02.995Z,15.75
2022-09-14T04:02:05.962Z,15.75
2022-09-14T04:07:09.006Z,15.76
2022-09-14T04:12:12.044Z,15.76
2022-09-14T04:17:14.902Z,15.79
2022-09-14T04:22:17.818Z,15.88
2022-09-14T04:27:20.697Z,15.90
2022-09-14T04:32:23.637Z,15.89
2022-09-14T04:37:26.583Z,15.88
2022-09-14T04:42:31.142Z,15.91
2022-09-14T04:47:34.021Z,15.94
2022-09-14T04:52:37.461Z,15.94
2022-09-14T04:57:40.602Z,15.91
2022-09-14T05:02:43.578Z,15.86
2022-09-14T05:07:46.590Z,15.82
2022-09-14T05:12:49.479Z,15.77
2022-09-14T05:17:52.340Z,15.82
2022-09-14T05:22:55.240Z,15.98
2022-09-14T05:27:58.438Z,16.16
2022-09-14T05:33:01.293Z,16.33
2022-09-14T05:38:04.194Z,16.48
2022-09-14T05:43:07.459Z,16.59
2022-09-14T05:48:10.193Z,16.71
2022-09-14T05:53:13.710Z,16.81
2022-09-14T05:58:18.101Z,16.82
2022-09-14T06:03:21.041Z,16.86
2022-09-14T06:08:24.432Z,16.95
2022-09-14T06:13:27.141Z,17.08
2022-09-14T06:18:35.581Z,17.15
2022-09-14T06:23:38.665Z,17.18
2022-09-14T06:28:42.423Z,17.23
2022-09-14T06:33:47.095Z,17.31
2022-09-14T06:38:50.407Z,17.41
2022-09-14T06:43:56.949Z,17.47
2022-09-14T06:49:03.209Z,17.62
2022-09-14T06:54:07.516Z,17.73
2022-09-14T06:59:15.771Z,17.77
2022-09-14T07:30:09.568Z,18.29
2022-09-14T07:35:12.530Z,18.46
2022-09-14T07:40:15.981Z,18.43
2022-09-14T07:45:19.045Z,18.45
2022-09-14T07:50:22.204Z,18.39
2022-09-14T07:55:25.226Z,18.31
2022-09-14T08:00:28.583Z,18.30
2022-09-14T08:05:31.570Z,18.24
2022-09-14T08:10:36.161Z,18.23
2022-09-14T08:15:39.962Z,18.25
2022-09-14T08:20:42.939Z,18.31
2022-09-14T08:25:45.943Z,18.32
2022-09-14T08:30:48.940Z,18.37
2022-09-14T08:35:57.856Z,18.46
2022-09-14T08:41:33.548Z,18.51
2022-09-14T08:46:44.696Z,18.51
2022-09-14T08:51:48.567Z,18.51
2022-09-14T08:57:05.031Z,18.48
2022-09-14T09:02:38.956Z,18.51
2022-09-14T09:07:54.143Z,18.58
2022-09-14T09:13:01.477Z,18.64
2022-09-14T09:18:49.642Z,18.59
2022-09-14T09:24:05.026Z,18.53
2022-09-14T09:29:10.825Z,18.50
2022-09-14T09:34:18.015Z,18.43
2022-09-14T09:39:21.000Z,18.33
2022-09-14T09:44:24.117Z,18.37
2022-09-14T09:49:37.024Z,18.48
2022-09-14T09:54:51.169Z,18.58
2022-09-14T10:00:09.449Z,18.62
2022-09-14T10:05:33.228Z,18.62
2022-09-14T10:10:36.067Z,18.59
2022-09-14T10:15:39.371Z,18.62
2022-09-14T10:20:53.099Z,18.67
2022-09-14T10:26:14.271Z,18.76
2022-09-14T10:31:20.355Z,18.89
2022-09-14T10:36:32.006Z,18.98
2022-09-14T10:41:49.295Z,19.05
2022-09-14T10:47:09.961Z,19.08
2022-09-14T10:52:48.418Z,19.07
2022-09-14T10:58:21.294Z,19.07
2022-09-14T11:04:22.513Z,19.11
2022-09-14T11:10:15.159Z,19.30
2022-09-14T11:15:32.044Z,19.47
2022-09-14T11:21:15.958Z,19.55
2022-09-14T11:26:42.347Z,19.56
2022-09-14T11:32:20.379Z,19.53
2022-09-14T11:37:35.879Z,19.42
2022-09-14T11:42:50.147Z,19.33
2022-09-14T11:48:12.504Z,19.26
2022-09-14T11:53:29.310Z,19.20
2022-09-14T11:58:33.026Z,19.19
2022-09-14T12:03:54.686Z,19.16
2022-09-14T12:09:22.916Z,19.14
2022-09-14T12:14:29.790Z,19.16
2022-09-14T12:19:34.881Z,19.18
2022-09-14T12:24:39.620Z,19.24
2022-09-14T12:29:43.089Z,19.34
2022-09-14T12:34:46.021Z,19.40
2022-09-14T12:40:21.171Z,19.41
2022-09-14T12:46:00.309Z,19.39
2022-09-14T12:51:05.600Z,19.33
2022-09-14T12:56:21.518Z,19.28
2022-09-14T13:02:08.962Z,19.22
2022-09-14T13:07:21.608Z,19.14
2022-09-14T13:12:41.470Z,19.08
2022-09-14T13:18:07.637Z,19.04
2022-09-14T13:23:41.353Z,19.00
2022-09-14T13:28:48.342Z,19.00
2022-09-14T13:33:54.813Z,18.99
2022-09-14T13:39:03.401Z,18.98
2022-09-14T13:44:06.560Z,18.99
2022-09-14T13:49:09.722Z,19.08
2022-09-14T13:54:32.101Z,19.17
2022-09-14T13:59:35.094Z,19.23
2022-09-14T14:04:40.364Z,19.23
2022-09-14T14:09:55.033Z,19.22
2022-09-14T14:15:10.967Z,19.19
2022-09-14T14:20:34.381Z,19.16
2022-09-14T14:25:49.538Z,19.12
2022-09-14T14:30:54.944Z,19.09
2022-09-14T14:35:58.441Z,19.07
2022-09-14T14:41:01.685Z,19.10
2022-09-14T14:46:07.605Z,19.12
2022-09-14T14:51:15.279Z,19.09
2022-09-14T14:56:18.235Z,19.02
2022-09-14T15:01:22.363Z,18.95
2022-09-14T15:06:28.050Z,18.90
2022-09-14T15:11:32.050Z,18.83
2022-09-14T15:16:35.294Z,18.77
2022-09-14T15:21:40.219Z,18.71
2022-09-14T15:26:43.484Z,18.65
2022-09-14T15:31:46.530Z,18.60
2022-09-14T15:36:52.887Z,18.58
2022-09-14T15:41:56.951Z,18.63
2022-09-14T15:47:00.016Z,18.71
2022-09-14T15:52:03.639Z,18.79
2022-09-14T15:57:10.990Z,18.81
2022-09-14T16:02:14.063Z,18.79
2022-09-14T16:07:17.648Z,18.73
2022-09-14T16:12:21.051Z,18.63
2022-09-14T16:17:24.041Z,18.52
2022-09-14T16:22:27.422Z,18.42
2022-09-14T16:27:31.132Z,18.33
2022-09-14T16:32:34.229Z,18.29
2022-09-14T16:37:37.233Z,18.24
2022-09-14T16:42:40.248Z,18.18
2022-09-14T16:47:43.203Z,18.08
2022-09-14T16:52:46.470Z,17.96
2022-09-14T16:57:49.419Z,17.81
2022-09-14T17:02:52.765Z,17.70
2022-09-14T17:07:55.732Z,17.60
2022-09-14T17:12:58.794Z,17.57
2022-09-14T17:18:01.753Z,17.55
2022-09-14T17:23:04.777Z,17.56
2022-09-14T17:28:07.760Z,17.54
2022-09-14T17:33:10.782Z,17.47
2022-09-14T17:38:13.882Z,17.41
2022-09-14T17:43:19.173Z,17.37
2022-09-14T17:48:23.657Z,17.37
2022-09-14T17:53:26.665Z,17.38
2022-09-14T17:58:29.685Z,17.37
2022-09-14T18:03:32.978Z,17.31
2022-09-14T18:08:36.449Z,17.24
2022-09-14T18:13:48.950Z,17.15
2022-09-14T18:18:52.041Z,17.07
2022-09-14T18:23:55.900Z,17.08
2022-09-14T18:28:59.688Z,17.12
2022-09-14T18:34:02.710Z,17.14
2022-09-14T18:39:05.754Z,17.13
2022-09-14T18:44:10.015Z,17.08
2022-09-14T18:49:13.221Z,17.00
2022-09-14T18:54:16.863Z,16.94
2022-09-14T18:59:19.803Z,16.89
2022-09-14T19:04:22.755Z,16.89
2022-09-14T19:09:25.978Z,16.90
2022-09-14T19:14:28.883Z,16.89
2022-09-14T19:19:31.706Z,16.85
2022-09-14T19:24:34.697Z,16.80
2022-09-14T19:29:37.796Z,16.71
2022-09-14T19:34:40.799Z,16.71
2022-09-14T19:39:44.438Z,16.72
2022-09-14T19:44:47.418Z,16.78
2022-09-14T19:49:50.398Z,16.81
2022-09-14T19:54:53.421Z,16.83
2022-09-14T19:59:56.414Z,16.82
2022-09-14T20:04:59.556Z,16.79
2022-09-14T20:10:02.566Z,16.80
2022-09-14T20:15:06.218Z,16.83
2022-09-14T20:20:10.783Z,16.92
2022-09-14T20:25:14.191Z,16.98
2022-09-14T20:30:17.196Z,16.99
2022-09-14T20:35:21.483Z,16.97
2022-09-14T20:40:24.487Z,16.93
2022-09-14T20:45:28.253Z,16.90
2022-09-14T20:50:31.403Z,16.94
2022-09-14T20:55:34.387Z,16.98
2022-09-14T21:00:37.380Z,16.96
2022-09-14T21:05:41.300Z,16.95
2022-09-14T21:10:44.294Z,16.90
2022-09-14T21:15:50.282Z,16.89
2022-09-14T21:20:53.261Z,16.90
2022-09-14T21:25:56.644Z,16.93
2022-09-14T21:31:21.049Z,16.96
2022-09-14T21:36:28.102Z,16.93
2022-09-14T21:41:32.784Z,16.87
2022-09-14T21:46:35.837Z,16.85
2022-09-14T21:51:38.769Z,16.88
2022-09-14T21:56:44.712Z,16.92
2022-09-14T22:01:48.964Z,16.92
2022-09-14T22:06:53.368Z,16.87
2022-09-14T22:11:57.435Z,16.87
2022-09-14T22:17:00.444Z,16.84
2022-09-14T22:22:03.920Z,16.86
2022-09-14T22:27:11.282Z,16.91
2022-09-14T22:32:14.777Z,16.93
2022-09-14T22:37:17.815Z,16.92
2022-09-14T22:42:21.699Z,16.88
2022-09-14T22:47:24.665Z,16.88
2022-09-14T22:52:27.633Z,16.93
2022-09-14T22:57:30.519Z,17.00
2022-09-14T23:02:33.591Z,17.06
2022-09-14T23:07:36.691Z,17.04
2022-09-14T23:12:39.698Z,16.93
2022-09-14T23:17:42.740Z,16.89
2022-09-14T23:22:45.739Z,16.94
2022-09-14T23:27:48.759Z,16.96
2022-09-14T23:32:51.924Z,17.01
2022-09-14T23:37:55.834Z,17.04
2022-09-14T23:42:58.856Z,17.06
2022-09-14T23:48:02.240Z,17.05
2022-09-14T23:53:06.682Z,17.03
2022-09-14T23:58:09.657Z,17.05
